Adriatic Princess — IVPQ — position and weather

sailwx.info

Track history (hours):
 
Tides and Currents Weather Stations Pressure Air Temp Water Temp Dewpoint Dewpoint Depression Visibility Wind Speed Wind Dir Waves Ship Positions

Adriatic Princess

Last reported at 2015-Jul-31 12:34 UTC. Time now 2015-Jul-31 13:23 UTC.
Position N 40°49' E 014°07'.

Length 32 m; draft 1.8 m.

Type: Passenger vessel. MMSI: 247165700.

Date/timePositionNaut miles runAvg speedWind from/ knotsBaromVisibWave heightAir tempDewpointWater temp
2015-Jul-31 12:34N 40°49' E 014°07'0 0.0
2015-Jul-31 11:33N 40°49' E 014°07'0 0.0
2015-Jul-31 10:33N 40°49' E 014°07'0 0.0
2015-Jul-31 09:33N 40°49' E 014°07'0 0.2
2015-Jul-31 08:34N 40°49' E 014°07'9 9.2
2015-Jul-31 07:33N 40°45' E 013°56'8 8.3
2015-Jul-31 06:33N 40°48' E 014°06'1 1.2
2015-Jul-31 05:33N 40°49' E 014°07'0 0.0
2015-Jul-31 04:33N 40°49' E 014°07'0 0.0
2015-Jul-31 03:33N 40°49' E 014°07'0 0.0
2015-Jul-31 02:33N 40°49' E 014°07'0 0.0
2015-Jul-31 01:33N 40°49' E 014°07'0 0.0
2015-Jul-31 00:33N 40°49' E 014°07'0 0.0
2015-Jul-30 23:33N 40°49' E 014°07'0 0.0
2015-Jul-30 22:33N 40°49' E 014°07'0 0.0
2015-Jul-30 21:33N 40°49' E 014°07'0 0.0
2015-Jul-30 20:33N 40°49' E 014°07'0 0.0
2015-Jul-30 19:33N 40°49' E 014°07'0 0.0
2015-Jul-30 18:33N 40°49' E 014°07'1 0.6
2015-Jul-30 17:32N 40°49' E 014°06'8 8.0
2015-Jul-30 16:34N 40°45' E 013°57'8 7.7
2015-Jul-30 15:33N 40°49' E 014°06'9 8.8
2015-Jul-30 14:33N 40°45' E 013°56'0 0.0
2015-Jul-30 13:33N 40°45' E 013°56'0 0.0
2015-Jul-30 12:33N 40°45' E 013°56'7 7.3
2015-Jul-30 11:33N 40°47' E 014°06'4 4.2
2015-Jul-30 10:33N 40°46' E 014°00'1 1.1
2015-Jul-30 09:34N 40°46' E 014°02'5 5.1
2015-Jul-30 08:33N 40°49' E 014°07'9 9.4
2015-Jul-30 07:33N 40°45' E 013°56'9 8.5
2015-Jul-30 06:33N 40°49' E 014°06'1 0.8
2015-Jul-30 05:31N 40°49' E 014°07'0 0.0
2015-Jul-29 20:27N 40°49' E 014°07'0 0.0
2015-Jul-29 18:33N 40°49' E 014°07'0 0.0
2015-Jul-29 17:34N 40°49' E 014°07'0 0.0
2015-Jul-29 16:28N 40°49' E 014°07'0 0.0
2015-Jul-29 13:33N 40°49' E 014°07'0 0.0
2015-Jul-29 12:34N 40°49' E 014°07'0 0.0
2015-Jul-29 11:34N 40°49' E 014°07'0 0.0
2015-Jul-29 10:33N 40°49' E 014°07'0 0.0
2015-Jul-29 09:33N 40°49' E 014°07'0 0.0
2015-Jul-29 08:33N 40°49' E 014°07'0 0.0
2015-Jul-29 07:33N 40°49' E 014°07'0 0.0
2015-Jul-29 06:33N 40°49' E 014°07'0 0.0
2015-Jul-29 05:33N 40°49' E 014°07'0 0.0
2015-Jul-29 04:33N 40°49' E 014°07'0 0.0
2015-Jul-29 03:33N 40°49' E 014°07'0 0.0
2015-Jul-29 02:33N 40°49' E 014°07'0 0.0
2015-Jul-29 01:33N 40°49' E 014°07'0 0.0
2015-Jul-29 00:33N 40°49' E 014°07'0 0.0
2015-Jul-28 23:33N 40°49' E 014°07'0 0.0
2015-Jul-28 22:33N 40°49' E 014°07'0 0.0
2015-Jul-28 21:34N 40°49' E 014°07'0 0.0
2015-Jul-28 20:33N 40°49' E 014°07'0 0.0
2015-Jul-28 19:33N 40°49' E 014°07'0 0.0
2015-Jul-28 18:33N 40°49' E 014°07'0 0.0
2015-Jul-28 17:33N 40°49' E 014°07'0 0.0
2015-Jul-28 16:33N 40°49' E 014°07'0 0.0
2015-Jul-28 15:33N 40°49' E 014°07'0 0.0
2015-Jul-28 14:33N 40°49' E 014°07'0 0.0
2015-Jul-28 13:33N 40°49' E 014°07'0 0.0
2015-Jul-28 12:33N 40°49' E 014°07'0 0.0
2015-Jul-28 11:33N 40°49' E 014°07'0 0.0
2015-Jul-28 10:34N 40°49' E 014°07'0 0.0
2015-Jul-28 09:34N 40°49' E 014°07'0 0.0
2015-Jul-28 08:34N 40°49' E 014°07'0 0.0
2015-Jul-28 07:33N 40°49' E 014°07'0 0.0
2015-Jul-28 06:33N 40°49' E 014°07'0 0.0
2015-Jul-28 05:33N 40°49' E 014°07'0 0.0
2015-Jul-28 04:33N 40°49' E 014°07'0 0.0
2015-Jul-28 03:33N 40°49' E 014°07'0 0.0
2015-Jul-28 02:33N 40°49' E 014°07'0 0.0
2015-Jul-28 01:33N 40°49' E 014°07'0 0.0
2015-Jul-28 00:33N 40°49' E 014°07'0 0.0
2015-Jul-27 23:33N 40°49' E 014°07'0 0.0
2015-Jul-27 22:33N 40°49' E 014°07'0 0.0
2015-Jul-27 21:33N 40°49' E 014°07'0 0.0
2015-Jul-27 20:33N 40°49' E 014°07'0 0.0
2015-Jul-27 19:33N 40°49' E 014°07'0 0.0
2015-Jul-27 18:33N 40°49' E 014°07'4 3.6
2015-Jul-27 17:33N 40°46' E 014°04'5 4.7
2015-Jul-27 16:33N 40°44' E 013°59'7 7.3
2015-Jul-27 15:33N 40°49' E 014°06'9 8.7
2015-Jul-27 14:33N 40°45' E 013°56'0 0.0
2015-Jul-27 13:33N 40°45' E 013°56'0 0.0
2015-Jul-27 12:33N 40°45' E 013°56'7 6.9
2015-Jul-27 11:33N 40°46' E 014°05'4 3.5
2015-Jul-27 10:33N 40°46' E 014°00'3 2.5
2015-Jul-27 09:33N 40°46' E 014°04'4 4.2
2015-Jul-27 08:33N 40°49' E 014°07'9 9.3
2015-Jul-27 07:34N 40°45' E 013°56'2 0.2
2015-Jul-26 22:19N 40°43' E 013°58'0 0.0
2015-Jul-26 21:33N 40°43' E 013°58'6 6.1
2015-Jul-26 20:33N 40°46' E 014°05'3 3.3
2015-Jul-26 19:33N 40°49' E 014°07'0 0.0
2015-Jul-26 18:33N 40°49' E 014°07'2 1.9
2015-Jul-26 17:33N 40°48' E 014°06'6 6.0
2015-Jul-26 16:33N 40°45' E 013°59'7 6.6
2015-Jul-26 15:33N 40°49' E 014°06'9 8.6
2015-Jul-26 14:33N 40°45' E 013°56'0 0.0
2015-Jul-26 13:33N 40°45' E 013°56'0 0.0
2015-Jul-26 12:33N 40°45' E 013°56'7 6.8
2015-Jul-26 11:33N 40°47' E 014°05'3 3.3
2015-Jul-26 10:34N 40°46' E 014°01'1 0.6
2015-Jul-26 09:34N 40°46' E 014°01'4 4.4
2015-Jul-26 08:33N 40°49' E 014°06'9 8.6
2015-Jul-26 07:33N 40°45' E 013°56'9 9.3
2015-Jul-26 06:33N 40°49' E 014°07'0 0.1
2015-Jul-26 05:33N 40°49' E 014°07'0 0.0
2015-Jul-26 04:33N 40°49' E 014°07'0 0.0
2015-Jul-26 03:33N 40°49' E 014°07'0 0.0
2015-Jul-26 02:33N 40°49' E 014°07'0 0.0
2015-Jul-26 01:33N 40°49' E 014°07'0 0.0
2015-Jul-26 00:33N 40°49' E 014°07'0 0.0
2015-Jul-25 23:33N 40°49' E 014°07'0 0.0
2015-Jul-25 22:33N 40°49' E 014°07'0 0.0
2015-Jul-25 21:33N 40°49' E 014°07'0 0.0
2015-Jul-25 20:33N 40°49' E 014°07'0 0.0
2015-Jul-25 19:33N 40°49' E 014°07'0 0.0
2015-Jul-25 18:33N 40°49' E 014°07'1 0.9
2015-Jul-25 17:33N 40°49' E 014°06'8 7.9
2015-Jul-25 16:33N 40°45' E 013°57'8 8.2
2015-Jul-25 15:33N 40°49' E 014°06'9 8.8
2015-Jul-25 14:33N 40°45' E 013°56'0 0.0
2015-Jul-25 13:34N 40°45' E 013°56'0 0.0
2015-Jul-25 12:33N 40°45' E 013°56'7 7.5
2015-Jul-25 11:33N 40°47' E 014°06'4 4.4
2015-Jul-25 10:33N 40°46' E 014°00'2 1.7
2015-Jul-25 09:33N 40°46' E 014°02'5 4.6
2015-Jul-25 08:33N 40°49' E 014°07'9 9.4
2015-Jul-25 07:33N 40°45' E 013°56'9 9.2
2015-Jul-25 06:33N 40°49' E 014°07'0 0.3
2015-Jul-25 05:33N 40°49' E 014°07'0 0.0
2015-Jul-25 04:33N 40°49' E 014°07'0 0.0
2015-Jul-25 03:33N 40°49' E 014°07'0 0.0
2015-Jul-25 02:33N 40°49' E 014°07'0 0.0
2015-Jul-25 01:33N 40°49' E 014°07'0 0.0
2015-Jul-25 00:33N 40°49' E 014°07'0 0.0
2015-Jul-24 23:33N 40°49' E 014°07'0 0.0
2015-Jul-24 22:33N 40°49' E 014°07'0 0.0
2015-Jul-24 21:34N 40°49' E 014°07'0 0.0
2015-Jul-24 20:33N 40°49' E 014°07'0 0.0
2015-Jul-24 19:33N 40°49' E 014°07'0 0.0
2015-Jul-24 18:33N 40°49' E 014°07'3 2.8
2015-Jul-24 17:33N 40°47' E 014°06'6 6.1
2015-Jul-24 16:33N 40°46' E 013°58'7 7.3
2015-Jul-24 15:33N 40°49' E 014°06'9 8.9
2015-Jul-24 14:34N 40°45' E 013°56'0 0.0
2015-Jul-24 13:33N 40°45' E 013°56'0 0.0
2015-Jul-24 12:33N 40°45' E 013°56'8 8.2
2015-Jul-24 11:34N 40°48' E 014°06'5 4.6
2015-Jul-24 10:33N 40°46' E 014°01'2 2.3
2015-Jul-24 09:33N 40°46' E 014°03'4 4.0
2015-Jul-24 08:33N 40°49' E 014°07'0 0.0
2015-Jul-24 07:33N 40°49' E 014°07'0 0.0
2015-Jul-24 06:33N 40°49' E 014°07'0 0.0
2015-Jul-24 05:32N 40°49' E 014°07'0 0.0
2015-Jul-24 04:33N 40°49' E 014°07'0 0.0
2015-Jul-24 03:33N 40°49' E 014°07'0 0.0
2015-Jul-24 02:33N 40°49' E 014°07'0 0.0
2015-Jul-24 01:33N 40°49' E 014°07'0 0.0
2015-Jul-24 00:33N 40°49' E 014°07'0 0.0
2015-Jul-23 23:33N 40°49' E 014°07'0 0.0
2015-Jul-23 22:33N 40°49' E 014°07'0 0.0
2015-Jul-23 21:33N 40°49' E 014°07'0 0.0
2015-Jul-23 20:33N 40°49' E 014°07'0 0.0
2015-Jul-23 15:33N 40°49' E 014°07'0 0.0
2015-Jul-23 14:33N 40°49' E 014°07'0 0.0
2015-Jul-23 13:33N 40°49' E 014°07'0 0.0
2015-Jul-23 12:34N 40°49' E 014°07'0 0.0
2015-Jul-23 11:33N 40°49' E 014°07'0 0.0
2015-Jul-23 10:33N 40°49' E 014°07'0 0.0
2015-Jul-23 09:33N 40°49' E 014°07'0 0.0
2015-Jul-23 08:33N 40°49' E 014°07'0 0.0
2015-Jul-23 07:33N 40°49' E 014°07'0 0.0
2015-Jul-21 20:34N 40°49' E 014°07'0 0.0
2015-Jul-21 19:34N 40°49' E 014°07'0 0.0
2015-Jul-21 18:34N 40°49' E 014°07'0 0.0
2015-Jul-21 17:34N 40°49' E 014°07'0 0.0
2015-Jul-21 16:33N 40°49' E 014°07'0 0.0
2015-Jul-21 15:34N 40°49' E 014°07'0 0.0
2015-Jul-21 14:34N 40°49' E 014°07'0 0.0
2015-Jul-21 13:33N 40°49' E 014°07'0 0.0
2015-Jul-21 12:34N 40°49' E 014°07'  
Track history (hours):
 
Tides and Currents Weather Stations Pressure Air Temp Water Temp Dewpoint Dewpoint Depression Visibility Wind Speed Wind Dir Waves Ship Positions

Adriatic Princess

Last reported at 2015-Jul-31 12:34 UTC. Time now 2015-Jul-31 13:23 UTC.
Position N 40°49' E 014°07'.

Length 32 m; draft 1.8 m.

Type: Passenger vessel. MMSI: 247165700.

Date/timePositionNaut miles runAvg speedWind from/ knotsBaromVisibWave heightAir tempDewpointWater temp
2015-Jul-31 12:34N 40°49' E 014°07'0 0.0
2015-Jul-31 11:33N 40°49' E 014°07'0 0.0
2015-Jul-31 10:33N 40°49' E 014°07'0 0.0
2015-Jul-31 09:33N 40°49' E 014°07'0 0.2
2015-Jul-31 08:34N 40°49' E 014°07'9 9.2
2015-Jul-31 07:33N 40°45' E 013°56'8 8.3
2015-Jul-31 06:33N 40°48' E 014°06'1 1.2
2015-Jul-31 05:33N 40°49' E 014°07'0 0.0
2015-Jul-31 04:33N 40°49' E 014°07'0 0.0
2015-Jul-31 03:33N 40°49' E 014°07'0 0.0
2015-Jul-31 02:33N 40°49' E 014°07'0 0.0
2015-Jul-31 01:33N 40°49' E 014°07'0 0.0
2015-Jul-31 00:33N 40°49' E 014°07'0 0.0
2015-Jul-30 23:33N 40°49' E 014°07'0 0.0
2015-Jul-30 22:33N 40°49' E 014°07'0 0.0
2015-Jul-30 21:33N 40°49' E 014°07'0 0.0
2015-Jul-30 20:33N 40°49' E 014°07'0 0.0
2015-Jul-30 19:33N 40°49' E 014°07'0 0.0
2015-Jul-30 18:33N 40°49' E 014°07'1 0.6
2015-Jul-30 17:32N 40°49' E 014°06'8 8.0
2015-Jul-30 16:34N 40°45' E 013°57'8 7.7
2015-Jul-30 15:33N 40°49' E 014°06'9 8.8
2015-Jul-30 14:33N 40°45' E 013°56'0 0.0
2015-Jul-30 13:33N 40°45' E 013°56'0 0.0
2015-Jul-30 12:33N 40°45' E 013°56'7 7.3
2015-Jul-30 11:33N 40°47' E 014°06'4 4.2
2015-Jul-30 10:33N 40°46' E 014°00'1 1.1
2015-Jul-30 09:34N 40°46' E 014°02'5 5.1
2015-Jul-30 08:33N 40°49' E 014°07'9 9.4
2015-Jul-30 07:33N 40°45' E 013°56'9 8.5
2015-Jul-30 06:33N 40°49' E 014°06'1 0.8
2015-Jul-30 05:31N 40°49' E 014°07'0 0.0
2015-Jul-29 20:27N 40°49' E 014°07'0 0.0
2015-Jul-29 18:33N 40°49' E 014°07'0 0.0
2015-Jul-29 17:34N 40°49' E 014°07'0 0.0
2015-Jul-29 16:28N 40°49' E 014°07'0 0.0
2015-Jul-29 13:33N 40°49' E 014°07'0 0.0
2015-Jul-29 12:34N 40°49' E 014°07'0 0.0
2015-Jul-29 11:34N 40°49' E 014°07'0 0.0
2015-Jul-29 10:33N 40°49' E 014°07'0 0.0
2015-Jul-29 09:33N 40°49' E 014°07'0 0.0
2015-Jul-29 08:33N 40°49' E 014°07'0 0.0
2015-Jul-29 07:33N 40°49' E 014°07'0 0.0
2015-Jul-29 06:33N 40°49' E 014°07'0 0.0
2015-Jul-29 05:33N 40°49' E 014°07'0 0.0
2015-Jul-29 04:33N 40°49' E 014°07'0 0.0
2015-Jul-29 03:33N 40°49' E 014°07'0 0.0
2015-Jul-29 02:33N 40°49' E 014°07'0 0.0
2015-Jul-29 01:33N 40°49' E 014°07'0 0.0
2015-Jul-29 00:33N 40°49' E 014°07'0 0.0
2015-Jul-28 23:33N 40°49' E 014°07'0 0.0
2015-Jul-28 22:33N 40°49' E 014°07'0 0.0
2015-Jul-28 21:34N 40°49' E 014°07'0 0.0
2015-Jul-28 20:33N 40°49' E 014°07'0 0.0
2015-Jul-28 19:33N 40°49' E 014°07'0 0.0
2015-Jul-28 18:33N 40°49' E 014°07'0 0.0
2015-Jul-28 17:33N 40°49' E 014°07'0 0.0
2015-Jul-28 16:33N 40°49' E 014°07'0 0.0
2015-Jul-28 15:33N 40°49' E 014°07'0 0.0
2015-Jul-28 14:33N 40°49' E 014°07'0 0.0
2015-Jul-28 13:33N 40°49' E 014°07'0 0.0
2015-Jul-28 12:33N 40°49' E 014°07'0 0.0
2015-Jul-28 11:33N 40°49' E 014°07'0 0.0
2015-Jul-28 10:34N 40°49' E 014°07'0 0.0
2015-Jul-28 09:34N 40°49' E 014°07'0 0.0
2015-Jul-28 08:34N 40°49' E 014°07'0 0.0
2015-Jul-28 07:33N 40°49' E 014°07'0 0.0
2015-Jul-28 06:33N 40°49' E 014°07'0 0.0
2015-Jul-28 05:33N 40°49' E 014°07'0 0.0
2015-Jul-28 04:33N 40°49' E 014°07'0 0.0
2015-Jul-28 03:33N 40°49' E 014°07'0 0.0
2015-Jul-28 02:33N 40°49' E 014°07'0 0.0
2015-Jul-28 01:33N 40°49' E 014°07'0 0.0
2015-Jul-28 00:33N 40°49' E 014°07'0 0.0
2015-Jul-27 23:33N 40°49' E 014°07'0 0.0
2015-Jul-27 22:33N 40°49' E 014°07'0 0.0
2015-Jul-27 21:33N 40°49' E 014°07'0 0.0
2015-Jul-27 20:33N 40°49' E 014°07'0 0.0
2015-Jul-27 19:33N 40°49' E 014°07'0 0.0
2015-Jul-27 18:33N 40°49' E 014°07'4 3.6
2015-Jul-27 17:33N 40°46' E 014°04'5 4.7
2015-Jul-27 16:33N 40°44' E 013°59'7 7.3
2015-Jul-27 15:33N 40°49' E 014°06'9 8.7
2015-Jul-27 14:33N 40°45' E 013°56'0 0.0
2015-Jul-27 13:33N 40°45' E 013°56'0 0.0
2015-Jul-27 12:33N 40°45' E 013°56'7 6.9
2015-Jul-27 11:33N 40°46' E 014°05'4 3.5
2015-Jul-27 10:33N 40°46' E 014°00'3 2.5
2015-Jul-27 09:33N 40°46' E 014°04'4 4.2
2015-Jul-27 08:33N 40°49' E 014°07'9 9.3
2015-Jul-27 07:34N 40°45' E 013°56'2 0.2
2015-Jul-26 22:19N 40°43' E 013°58'0 0.0
2015-Jul-26 21:33N 40°43' E 013°58'6 6.1
2015-Jul-26 20:33N 40°46' E 014°05'3 3.3
2015-Jul-26 19:33N 40°49' E 014°07'0 0.0
2015-Jul-26 18:33N 40°49' E 014°07'2 1.9
2015-Jul-26 17:33N 40°48' E 014°06'6 6.0
2015-Jul-26 16:33N 40°45' E 013°59'7 6.6
2015-Jul-26 15:33N 40°49' E 014°06'9 8.6
2015-Jul-26 14:33N 40°45' E 013°56'0 0.0
2015-Jul-26 13:33N 40°45' E 013°56'0 0.0
2015-Jul-26 12:33N 40°45' E 013°56'7 6.8
2015-Jul-26 11:33N 40°47' E 014°05'3 3.3
2015-Jul-26 10:34N 40°46' E 014°01'1 0.6
2015-Jul-26 09:34N 40°46' E 014°01'4 4.4
2015-Jul-26 08:33N 40°49' E 014°06'9 8.6
2015-Jul-26 07:33N 40°45' E 013°56'9 9.3
2015-Jul-26 06:33N 40°49' E 014°07'0 0.1
2015-Jul-26 05:33N 40°49' E 014°07'0 0.0
2015-Jul-26 04:33N 40°49' E 014°07'0 0.0
2015-Jul-26 03:33N 40°49' E 014°07'0 0.0
2015-Jul-26 02:33N 40°49' E 014°07'0 0.0
2015-Jul-26 01:33N 40°49' E 014°07'0 0.0
2015-Jul-26 00:33N 40°49' E 014°07'0 0.0
2015-Jul-25 23:33N 40°49' E 014°07'0 0.0
2015-Jul-25 22:33N 40°49' E 014°07'0 0.0
2015-Jul-25 21:33N 40°49' E 014°07'0 0.0
2015-Jul-25 20:33N 40°49' E 014°07'0 0.0
2015-Jul-25 19:33N 40°49' E 014°07'0 0.0
2015-Jul-25 18:33N 40°49' E 014°07'1 0.9
2015-Jul-25 17:33N 40°49' E 014°06'8 7.9
2015-Jul-25 16:33N 40°45' E 013°57'8 8.2
2015-Jul-25 15:33N 40°49' E 014°06'9 8.8
2015-Jul-25 14:33N 40°45' E 013°56'0 0.0
2015-Jul-25 13:34N 40°45' E 013°56'0 0.0
2015-Jul-25 12:33N 40°45' E 013°56'7 7.5
2015-Jul-25 11:33N 40°47' E 014°06'4 4.4
2015-Jul-25 10:33N 40°46' E 014°00'2 1.7
2015-Jul-25 09:33N 40°46' E 014°02'5 4.6
2015-Jul-25 08:33N 40°49' E 014°07'9 9.4
2015-Jul-25 07:33N 40°45' E 013°56'9 9.2
2015-Jul-25 06:33N 40°49' E 014°07'0 0.3
2015-Jul-25 05:33N 40°49' E 014°07'0 0.0
2015-Jul-25 04:33N 40°49' E 014°07'0 0.0
2015-Jul-25 03:33N 40°49' E 014°07'0 0.0
2015-Jul-25 02:33N 40°49' E 014°07'0 0.0
2015-Jul-25 01:33N 40°49' E 014°07'0 0.0
2015-Jul-25 00:33N 40°49' E 014°07'0 0.0
2015-Jul-24 23:33N 40°49' E 014°07'0 0.0
2015-Jul-24 22:33N 40°49' E 014°07'0 0.0
2015-Jul-24 21:34N 40°49' E 014°07'0 0.0
2015-Jul-24 20:33N 40°49' E 014°07'0 0.0
2015-Jul-24 19:33N 40°49' E 014°07'0 0.0
2015-Jul-24 18:33N 40°49' E 014°07'3 2.8
2015-Jul-24 17:33N 40°47' E 014°06'6 6.1
2015-Jul-24 16:33N 40°46' E 013°58'7 7.3
2015-Jul-24 15:33N 40°49' E 014°06'9 8.9
2015-Jul-24 14:34N 40°45' E 013°56'0 0.0
2015-Jul-24 13:33N 40°45' E 013°56'0 0.0
2015-Jul-24 12:33N 40°45' E 013°56'8 8.2
2015-Jul-24 11:34N 40°48' E 014°06'5 4.6
2015-Jul-24 10:33N 40°46' E 014°01'2 2.3
2015-Jul-24 09:33N 40°46' E 014°03'4 4.0
2015-Jul-24 08:33N 40°49' E 014°07'0 0.0
2015-Jul-24 07:33N 40°49' E 014°07'0 0.0
2015-Jul-24 06:33N 40°49' E 014°07'0 0.0
2015-Jul-24 05:32N 40°49' E 014°07'0 0.0
2015-Jul-24 04:33N 40°49' E 014°07'0 0.0
2015-Jul-24 03:33N 40°49' E 014°07'0 0.0
2015-Jul-24 02:33N 40°49' E 014°07'0 0.0
2015-Jul-24 01:33N 40°49' E 014°07'0 0.0
2015-Jul-24 00:33N 40°49' E 014°07'0 0.0
2015-Jul-23 23:33N 40°49' E 014°07'0 0.0
2015-Jul-23 22:33N 40°49' E 014°07'0 0.0
2015-Jul-23 21:33N 40°49' E 014°07'0 0.0
2015-Jul-23 20:33N 40°49' E 014°07'0 0.0
2015-Jul-23 15:33N 40°49' E 014°07'0 0.0
2015-Jul-23 14:33N 40°49' E 014°07'0 0.0
2015-Jul-23 13:33N 40°49' E 014°07'0 0.0
2015-Jul-23 12:34N 40°49' E 014°07'0 0.0
2015-Jul-23 11:33N 40°49' E 014°07'0 0.0
2015-Jul-23 10:33N 40°49' E 014°07'0 0.0
2015-Jul-23 09:33N 40°49' E 014°07'0 0.0
2015-Jul-23 08:33N 40°49' E 014°07'0 0.0
2015-Jul-23 07:33N 40°49' E 014°07'0 0.0
2015-Jul-21 20:34N 40°49' E 014°07'0 0.0
2015-Jul-21 19:34N 40°49' E 014°07'0 0.0
2015-Jul-21 18:34N 40°49' E 014°07'0 0.0
2015-Jul-21 17:34N 40°49' E 014°07'0 0.0
2015-Jul-21 16:33N 40°49' E 014°07'0 0.0
2015-Jul-21 15:34N 40°49' E 014°07'0 0.0
2015-Jul-21 14:34N 40°49' E 014°07'0 0.0
2015-Jul-21 13:33N 40°49' E 014°07'0 0.0
2015-Jul-21 12:34N 40°49' E 014°07'  

Dump ship's entire track history